sensor_id;sensor_type;location;lat;lon;timestamp;pressure;altitude;pressure_sealevel;temperature;humidity
5988;BME280;3021;51.000;6.980;2023-08-06T00:00:19;68124.94;;;16.32;100.00
5988;BME280;3021;51.000;6.980;2023-08-06T00:02:44;68124.06;;;16.36;100.00
5988;BME280;3021;51.000;6.980;2023-08-06T00:05:10;68121.00;;;16.31;100.00
5988;BME280;3021;51.000;6.980;2023-08-06T00:07:35;68115.78;;;16.27;100.00
5988;BME280;3021;51.000;6.980;2023-08-06T00:10:00;68108.69;;;16.18;100.00
5988;BME280;3021;51.000;6.980;2023-08-06T00:12:25;68098.94;;;16.12;100.00
5988;BME280;3021;51.000;6.980;2023-08-06T00:14:52;68089.66;;;16.03;100.00
5988;BME280;3021;51.000;6.980;2023-08-06T00:17:18;68074.41;;;15.87;100.00
5988;BME280;3021;51.000;6.980;2023-08-06T00:19:43;68069.34;;;15.85;100.00
5988;BME280;3021;51.000;6.980;2023-08-06T00:22:09;68067.59;;;15.84;100.00
5988;BME280;3021;51.000;6.980;2023-08-06T00:24:34;68062.81;;;15.77;100.00
5988;BME280;3021;51.000;6.980;2023-08-06T00:27:00;68055.97;;;15.73;100.00
5988;BME280;3021;51.000;6.980;2023-08-06T00:29:26;68056.41;;;15.71;100.00
5988;BME280;3021;51.000;6.980;2023-08-06T00:31:51;68052.50;;;15.70;100.00
5988;BME280;3021;51.000;6.980;2023-08-06T00:34:16;68049.59;;;15.68;100.00
5988;BME280;3021;51.000;6.980;2023-08-06T00:36:42;68045.09;;;15.66;100.00
5988;BME280;3021;51.000;6.980;2023-08-06T00:39:07;68043.78;;;15.63;100.00
5988;BME280;3021;51.000;6.980;2023-08-06T00:41:32;68039.72;;;15.59;100.00
5988;BME280;3021;51.000;6.980;2023-08-06T00:43:58;68039.00;;;15.56;100.00
5988;BME280;3021;51.000;6.980;2023-08-06T00:46:23;68030.88;;;15.49;100.00
5988;BME280;3021;51.000;6.980;2023-08-06T00:48:50;68033.78;;;15.51;100.00
5988;BME280;3021;51.000;6.980;2023-08-06T00:51:16;68026.81;;;15.45;100.00
5988;BME280;3021;51.000;6.980;2023-08-06T00:53:42;68024.63;;;15.46;100.00
5988;BME280;3021;51.000;6.980;2023-08-06T00:56:08;68022.75;;;15.42;100.00
5988;BME280;3021;51.000;6.980;2023-08-06T00:58:35;68025.94;;;15.49;100.00
5988;BME280;3021;51.000;6.980;2023-08-06T01:01:01;68019.56;;;15.44;100.00
5988;BME280;3021;51.000;6.980;2023-08-06T01:03:27;68032.63;;;15.50;100.00
5988;BME280;3021;51.000;6.980;2023-08-06T01:05:53;68034.63;;;15.57;100.00
5988;BME280;3021;51.000;6.980;2023-08-06T01:08:28;68037.84;;;15.55;100.00
5988;BME280;3021;51.000;6.980;2023-08-06T01:11:21;68031.03;;;15.51;100.00
5988;BME280;3021;51.000;6.980;2023-08-06T01:13:57;68025.81;;;15.47;100.00
5988;BME280;3021;51.000;6.980;2023-08-06T01:16:24;68025.34;;;15.49;100.00
5988;BME280;3021;51.000;6.980;2023-08-06T01:18:50;68028.13;;;15.49;100.00
5988;BME280;3021;51.000;6.980;2023-08-06T01:21:16;68039.00;;;15.56;100.00
5988;BME280;3021;51.000;6.980;2023-08-06T01:23:42;68038.56;;;15.58;100.00
5988;BME280;3021;51.000;6.980;2023-08-06T01:26:30;68051.19;;;15.67;100.00
5988;BME280;3021;51.000;6.980;2023-08-06T01:29:23;68045.09;;;15.66;100.00
5988;BME280;3021;51.000;6.980;2023-08-06T01:31:51;68048.44;;;15.67;100.00
5988;BME280;3021;51.000;6.980;2023-08-06T01:34:21;68045.09;;;15.66;100.00
5988;BME280;3021;51.000;6.980;2023-08-06T01:36:47;68044.81;;;15.61;100.00
5988;BME280;3021;51.000;6.980;2023-08-06T01:39:12;68049.91;;;15.63;100.00
5988;BME280;3021;51.000;6.980;2023-08-06T01:41:38;68042.03;;;15.61;100.00
5988;BME280;3021;51.000;6.980;2023-08-06T01:44:03;68045.38;;;15.62;100.00
5988;BME280;3021;51.000;6.980;2023-08-06T01:46:28;68041.47;;;15.61;100.00
5988;BME280;3021;51.000;6.980;2023-08-06T01:48:54;68050.03;;;15.66;100.00
5988;BME280;3021;51.000;6.980;2023-08-06T01:51:19;68042.03;;;15.61;100.00
5988;BME280;3021;51.000;6.980;2023-08-06T01:53:44;68041.47;;;15.61;100.00
5988;BME280;3021;51.000;6.980;2023-08-06T01:56:10;68041.91;;;15.59;100.00
5988;BME280;3021;51.000;6.980;2023-08-06T01:58:35;68032.91;;;15.55;100.00
5988;BME280;3021;51.000;6.980;2023-08-06T02:01:01;68032.31;;;15.55;100.00
5988;BME280;3021;51.000;6.980;2023-08-06T02:03:27;68032.03;;;15.50;100.00
5988;BME280;3021;51.000;6.980;2023-08-06T02:05:52;68020.00;;;15.42;100.00
5988;BME280;3021;51.000;6.980;2023-08-06T02:08:17;68014.63;;;15.34;100.00
5988;BME280;3021;51.000;6.980;2023-08-06T02:10:43;68011.88;;;15.34;100.00
5988;BME280;3021;51.000;6.980;2023-08-06T02:13:08;68013.50;;;15.33;100.00
5988;BME280;3021;51.000;6.980;2023-08-06T02:15:33;68017.69;;;15.40;100.00
5988;BME280;3021;51.000;6.980;2023-08-06T02:17:58;68018.84;;;15.41;100.00
5988;BME280;3021;51.000;6.980;2023-08-06T02:20:24;68029.13;;;15.47;100.00
5988;BME280;3021;51.000;6.980;2023-08-06T02:22:49;68035.53;;;15.53;100.00
5988;BME280;3021;51.000;6.980;2023-08-06T02:25:14;68031.63;;;15.52;100.00
5988;BME280;3021;51.000;6.980;2023-08-06T02:27:40;68033.94;;;15.54;100.00
5988;BME280;3021;51.000;6.980;2023-08-06T02:30:06;68038.56;;;15.58;100.00
5988;BME280;3021;51.000;6.980;2023-08-06T02:32:31;68036.22;;;15.56;100.00
5988;BME280;3021;51.000;6.980;2023-08-06T02:34:58;68037.84;;;15.55;100.00
5988;BME280;3021;51.000;6.980;2023-08-06T02:37:23;68035.81;;;15.58;100.00
5988;BME280;3021;51.000;6.980;2023-08-06T02:39:48;68046.69;;;15.65;100.00
5988;BME280;3021;51.000;6.980;2023-08-06T02:42:14;68051.19;;;15.67;100.00
5988;BME280;3021;51.000;6.980;2023-08-06T02:44:39;68053.06;;;15.71;100.00
5988;BME280;3021;51.000;6.980;2023-08-06T02:47:05;68056.56;;;15.74;100.00
5988;BME280;3021;51.000;6.980;2023-08-06T02:49:30;68060.63;;;15.78;100.00
5988;BME280;3021;51.000;6.980;2023-08-06T02:51:55;68066.72;;;15.78;100.00
5988;BME280;3021;51.000;6.980;2023-08-06T02:54:21;68061.78;;;15.79;100.00
5988;BME280;3021;51.000;6.980;2023-08-06T02:56:46;68066.31;;;15.80;100.00
5988;BME280;3021;51.000;6.980;2023-08-06T02:59:12;68062.38;;;15.79;100.00
5988;BME280;3021;51.000;6.980;2023-08-06T03:01:38;68056.13;;;15.76;100.00
5988;BME280;3021;51.000;6.980;2023-08-06T03:04:04;68066.56;;;15.85;100.00
5988;BME280;3021;51.000;6.980;2023-08-06T03:06:29;68070.38;;;15.84;100.00
5988;BME280;3021;51.000;6.980;2023-08-06T03:08:54;68073.84;;;15.87;100.00
5988;BME280;3021;51.000;6.980;2023-08-06T03:11:20;68081.66;;;15.99;100.00
5988;BME280;3021;51.000;6.980;2023-08-06T03:13:47;68079.34;;;15.97;100.00
5988;BME280;3021;51.000;6.980;2023-08-06T03:16:12;68072.38;;;15.91;100.00
5988;BME280;3021;51.000;6.980;2023-08-06T03:18:37;68070.50;;;15.86;100.00
5988;BME280;3021;51.000;6.980;2023-08-06T03:21:03;68070.50;;;15.86;100.00
5988;BME280;3021;51.000;6.980;2023-08-06T03:23:28;68078.63;;;15.94;100.00
5988;BME280;3021;51.000;6.980;2023-08-06T03:25:53;68082.56;;;15.95;100.00
5988;BME280;3021;51.000;6.980;2023-08-06T03:28:20;68082.56;;;15.95;100.00
5988;BME280;3021;51.000;6.980;2023-08-06T03:30:45;68083.28;;;15.98;100.00
5988;BME280;3021;51.000;6.980;2023-08-06T03:33:11;68080.94;;;15.96;100.00
5988;BME280;3021;51.000;6.980;2023-08-06T03:35:36;68062.97;;;15.80;100.00
5988;BME280;3021;51.000;6.980;2023-08-06T03:38:01;68047.84;;;15.66;100.00
5988;BME280;3021;51.000;6.980;2023-08-06T03:40:27;68038.00;;;15.58;100.00
5988;BME280;3021;51.000;6.980;2023-08-06T03:42:52;68030.88;;;15.49;100.00
5988;BME280;3021;51.000;6.980;2023-08-06T03:45:17;68028.00;;;15.46;100.00
5988;BME280;3021;51.000;6.980;2023-08-06T03:47:43;68022.31;;;15.44;100.00
5988;BME280;3021;51.000;6.980;2023-08-06T03:50:08;68017.22;;;15.42;100.00
5988;BME280;3021;51.000;6.980;2023-08-06T03:52:33;68020.72;;;15.45;100.00
5988;BME280;3021;51.000;6.980;2023-08-06T03:54:59;68025.09;;;15.44;100.00
5988;BME280;3021;51.000;6.980;2023-08-06T03:57:24;68031.47;;;15.49;100.00
5988;BME280;3021;51.000;6.980;2023-08-06T03:59:49;68031.03;;;15.51;100.00
5988;BME280;3021;51.000;6.980;2023-08-06T04:02:15;68026.97;;;15.48;100.00
5988;BME280;3021;51.000;6.980;2023-08-06T04:04:40;68029.72;;;15.48;100.00
5988;BME280;3021;51.000;6.980;2023-08-06T04:07:05;68028.00;;;15.46;100.00
5988;BME280;3021;51.000;6.980;2023-08-06T04:09:31;68017.69;;;15.40;100.00
5988;BME280;3021;51.000;6.980;2023-08-06T04:11:56;68011.88;;;15.34;100.00
5988;BME280;3021;51.000;6.980;2023-08-06T04:14:23;68016.97;;;15.36;100.00
5988;BME280;3021;51.000;6.980;2023-08-06T04:16:49;68010.84;;;15.36;100.00
5988;BME280;3021;51.000;6.980;2023-08-06T04:19:14;68013.03;;;15.35;100.00
5988;BME280;3021;51.000;6.980;2023-08-06T04:21:39;68014.22;;;15.36;100.00
5988;BME280;3021;51.000;6.980;2023-08-06T04:24:05;68005.63;;;15.31;100.00
5988;BME280;3021;51.000;6.980;2023-08-06T04:26:30;68009.00;;;15.32;100.00
5988;BME280;3021;51.000;6.980;2023-08-06T04:28:55;68003.75;;;15.27;100.00
5988;BME280;3021;51.000;6.980;2023-08-06T04:31:21;67999.00;;;15.20;100.00
5988;BME280;3021;51.000;6.980;2023-08-06T04:33:47;68006.09;;;15.29;100.00
5988;BME280;3021;51.000;6.980;2023-08-06T04:36:12;68015.22;;;15.35;100.00
5988;BME280;3021;51.000;6.980;2023-08-06T04:38:37;68020.00;;;15.42;100.00
5988;BME280;3021;51.000;6.980;2023-08-06T04:41:03;68019.41;;;15.41;100.00
5988;BME280;3021;51.000;6.980;2023-08-06T04:43:29;68028.72;;;15.49;100.00
5988;BME280;3021;51.000;6.980;2023-08-06T04:45:55;68026.25;;;15.45;100.00
5988;BME280;3021;51.000;6.980;2023-08-06T04:48:21;68028.13;;;15.49;100.00
5988;BME280;3021;51.000;6.980;2023-08-06T04:50:48;68032.31;;;15.55;100.00
5988;BME280;3021;51.000;6.980;2023-08-06T04:53:13;68033.94;;;15.54;100.00
5988;BME280;3021;51.000;6.980;2023-08-06T04:55:39;68040.16;;;15.57;100.00
5988;BME280;3021;51.000;6.980;2023-08-06T04:58:05;68035.81;;;15.58;100.00
5988;BME280;3021;51.000;6.980;2023-08-06T05:00:30;68035.09;;;15.55;100.00
5988;BME280;3021;51.000;6.980;2023-08-06T05:02:55;68037.41;;;15.57;100.00
5988;BME280;3021;51.000;6.980;2023-08-06T05:05:21;68042.50;;;15.59;100.00
5988;BME280;3021;51.000;6.980;2023-08-06T05:07:49;68039.72;;;15.59;100.00
5988;BME280;3021;51.000;6.980;2023-08-06T05:10:15;68042.50;;;15.59;100.00
5988;BME280;3021;51.000;6.980;2023-08-06T05:12:40;68048.88;;;15.65;100.00
5988;BME280;3021;51.000;6.980;2023-08-06T05:15:06;68053.66;;;15.71;100.00
5988;BME280;3021;51.000;6.980;2023-08-06T05:17:31;68067.31;;;15.79;100.00
5988;BME280;3021;51.000;6.980;2023-08-06T05:19:56;68061.38;;;15.81;100.00
5988;BME280;3021;51.000;6.980;2023-08-06T05:22:22;68056.56;;;15.74;100.00
5988;BME280;3021;51.000;6.980;2023-08-06T05:24:47;68068.78;;;15.85;100.00
5988;BME280;3021;51.000;6.980;2023-08-06T05:27:13;68072.97;;;15.91;100.00
5988;BME280;3021;51.000;6.980;2023-08-06T05:29:38;68093.16;;;16.06;100.00
5988;BME280;3021;51.000;6.980;2023-08-06T05:32:04;68097.19;;;16.10;100.00
5988;BME280;3021;51.000;6.980;2023-08-06T05:34:29;68105.47;;;16.20;100.00
5988;BME280;3021;51.000;6.980;2023-08-06T05:36:54;68106.50;;;16.18;100.00
5988;BME280;3021;51.000;6.980;2023-08-06T05:39:20;68127.38;;;16.37;100.00
5988;BME280;3021;51.000;6.980;2023-08-06T05:41:45;68130.88;;;16.40;100.00
5988;BME280;3021;51.000;6.980;2023-08-06T05:44:10;68119.84;;;16.30;100.00
5988;BME280;3021;51.000;6.980;2023-08-06T05:46:36;68136.53;;;16.42;100.00
5988;BME280;3021;51.000;6.980;2023-08-06T05:49:01;68168.03;;;16.73;100.00
5988;BME280;3021;51.000;6.980;2023-08-06T05:51:26;68202.19;;;17.01;100.00
5988;BME280;3021;51.000;6.980;2023-08-06T05:53:52;68208.28;;;17.11;100.00
5988;BME280;3021;51.000;6.980;2023-08-06T05:56:17;68170.38;;;16.75;100.00
5988;BME280;3021;51.000;6.980;2023-08-06T05:58:43;68183.16;;;16.86;100.00
5988;BME280;3021;51.000;6.980;2023-08-06T06:01:08;68194.78;;;16.97;100.00
5988;BME280;3021;51.000;6.980;2023-08-06T06:03:33;68189.69;;;16.95;100.00
5988;BME280;3021;51.000;6.980;2023-08-06T06:06:01;68193.63;;;16.96;100.00
5988;BME280;3021;51.000;6.980;2023-08-06T06:08:26;68175.13;;;16.82;100.00
5988;BME280;3021;51.000;6.980;2023-08-06T06:10:51;68178.03;;;16.84;100.00
5988;BME280;3021;51.000;6.980;2023-08-06T06:13:17;68174.28;;;16.76;100.00
5988;BME280;3021;51.000;6.980;2023-08-06T06:15:42;68166.88;;;16.72;100.00
5988;BME280;3021;51.000;6.980;2023-08-06T06:18:07;68181.97;;;16.85;100.00
5988;BME280;3021;51.000;6.980;2023-08-06T06:20:33;68184.91;;;16.88;100.00
5988;BME280;3021;51.000;6.980;2023-08-06T06:22:59;68169.19;;;16.74;100.00
5988;BME280;3021;51.000;6.980;2023-08-06T06:25:24;68164.56;;;16.70;100.00
5988;BME280;3021;51.000;6.980;2023-08-06T06:27:50;68159.47;;;16.68;100.00
5988;BME280;3021;51.000;6.980;2023-08-06T06:30:15;68168.03;;;16.73;100.00
5988;BME280;3021;51.000;6.980;2023-08-06T06:32:40;68174.00;;;16.81;100.00
5988;BME280;3021;51.000;6.980;2023-08-06T06:35:06;68186.06;;;16.89;100.00
5988;BME280;3021;51.000;6.980;2023-08-06T06:37:32;68204.66;;;17.05;100.00
5988;BME280;3021;51.000;6.980;2023-08-06T06:39:57;68202.34;;;17.03;100.00
5988;BME280;3021;51.000;6.980;2023-08-06T06:42:22;68193.63;;;16.96;100.00
5988;BME280;3021;51.000;6.980;2023-08-06T06:44:48;68199.44;;;17.01;100.00
5988;BME280;3021;51.000;6.980;2023-08-06T06:47:13;68202.34;;;17.03;100.00
5988;BME280;3021;51.000;6.980;2023-08-06T06:49:39;68214.66;;;17.17;100.00
5988;BME280;3021;51.000;6.980;2023-08-06T06:52:05;68226.03;;;17.22;100.00
5988;BME280;3021;51.000;6.980;2023-08-06T06:54:30;68226.13;;;17.24;100.00
5988;BME280;3021;51.000;6.980;2023-08-06T06:56:55;68226.28;;;17.27;100.00
5988;BME280;3021;51.000;6.980;2023-08-06T06:59:21;68229.06;;;17.27;100.00
5988;BME280;3021;51.000;6.980;2023-08-06T07:01:46;68233.69;;;17.31;100.00
5988;BME280;3021;51.000;6.980;2023-08-06T07:04:11;68222.22;;;17.23;100.00
5988;BME280;3021;51.000;6.980;2023-08-06T07:06:37;68227.88;;;17.26;100.00
5988;BME280;3021;51.000;6.980;2023-08-06T07:09:02;68243.56;;;17.40;100.00
5988;BME280;3021;51.000;6.980;2023-08-06T07:11:28;68270.88;;;17.64;100.00
5988;BME280;3021;51.000;6.980;2023-08-06T07:13:57;68296.47;;;17.87;100.00
5988;BME280;3021;51.000;6.980;2023-08-06T07:16:25;68287.88;;;17.82;100.00
5988;BME280;3021;51.000;6.980;2023-08-06T07:18:54;68306.38;;;17.95;100.00
5988;BME280;3021;51.000;6.980;2023-08-06T07:21:20;68324.38;;;18.11;100.00
5988;BME280;3021;51.000;6.980;2023-08-06T07:23:45;68338.47;;;18.26;100.00
5988;BME280;3021;51.000;6.980;2023-08-06T07:26:11;68337.63;;;18.21;100.00
5988;BME280;3021;51.000;6.980;2023-08-06T07:28:36;68320.19;;;18.05;100.00
5988;BME280;3021;51.000;6.980;2023-08-06T07:31:03;68299.94;;;17.90;100.00
5988;BME280;3021;51.000;6.980;2023-08-06T07:33:29;68289.50;;;17.81;100.00
5988;BME280;3021;51.000;6.980;2023-08-06T07:35:54;68277.41;;;17.72;100.00
5988;BME280;3021;51.000;6.980;2023-08-06T07:38:19;68270.31;;;17.64;100.00
5988;BME280;3021;51.000;6.980;2023-08-06T07:40:45;68256.38;;;17.51;100.00
5988;BME280;3021;51.000;6.980;2023-08-06T07:43:10;68247.78;;;17.46;100.00
5988;BME280;3021;51.000;6.980;2023-08-06T07:45:35;68243.44;;;17.37;100.00
5988;BME280;3021;51.000;6.980;2023-08-06T07:48:01;68236.75;;;17.36;100.00
5988;BME280;3021;51.000;6.980;2023-08-06T07:50:27;68230.78;;;17.28;100.00
5988;BME280;3021;51.000;6.980;2023-08-06T07:52:52;68235.59;;;17.35;100.00
5988;BME280;3021;51.000;6.980;2023-08-06T07:55:17;68238.34;;;17.35;100.00
5988;BME280;3021;51.000;6.980;2023-08-06T07:57:43;68223.97;;;17.25;100.00
5988;BME280;3021;51.000;6.980;2023-08-06T08:00:08;68230.22;;;17.28;100.00
5988;BME280;3021;51.000;6.980;2023-08-06T08:02:34;68236.59;;;17.34;100.00
5988;BME280;3021;51.000;6.980;2023-08-06T08:05:00;68233.84;;;17.34;100.00
5988;BME280;3021;51.000;6.980;2023-08-06T08:07:25;68238.34;;;17.35;100.00
5988;BME280;3021;51.000;6.980;2023-08-06T08:09:53;68241.97;;;17.41;100.00
5988;BME280;3021;51.000;6.980;2023-08-06T08:12:18;68254.63;;;17.50;100.00
5988;BME280;3021;51.000;6.980;2023-08-06T08:14:44;68270.19;;;17.61;100.00
5988;BME280;3021;51.000;6.980;2023-08-06T08:17:10;68272.63;;;17.66;100.00
5988;BME280;3021;51.000;6.980;2023-08-06T08:19:36;68278.44;;;17.71;100.00
5988;BME280;3021;51.000;6.980;2023-08-06T08:22:02;68290.66;;;17.82;100.00
5988;BME280;3021;51.000;6.980;2023-08-06T08:24:28;68282.06;;;17.76;100.00
5988;BME280;3021;51.000;6.980;2023-08-06T08:26:54;68268.13;;;17.64;100.00
5988;BME280;3021;51.000;6.980;2023-08-06T08:29:20;68259.97;;;17.57;100.00
5988;BME280;3021;51.000;6.980;2023-08-06T08:31:46;68269.84;;;17.66;100.00
5988;BME280;3021;51.000;6.980;2023-08-06T08:34:14;68279.72;;;17.74;100.00
5988;BME280;3021;51.000;6.980;2023-08-06T08:36:39;68294.88;;;17.88;100.00
5988;BME280;3021;51.000;6.980;2023-08-06T08:39:05;68302.88;;;17.92;100.00
5988;BME280;3021;51.000;6.980;2023-08-06T08:41:31;68307.53;;;17.96;100.00
5988;BME280;3021;51.000;6.980;2023-08-06T08:43:58;68311.03;;;18.00;100.00
5988;BME280;3021;51.000;6.980;2023-08-06T08:46:26;68320.31;;;18.08;100.00
5988;BME280;3021;51.000;6.980;2023-08-06T08:48:52;68300.69;;;17.93;100.00
5988;BME280;3021;51.000;6.980;2023-08-06T08:51:19;68295.91;;;17.86;100.00
5988;BME280;3021;51.000;6.980;2023-08-06T08:53:47;68291.25;;;17.82;100.00
5988;BME280;3021;51.000;6.980;2023-08-06T08:56:13;68304.75;;;17.96;100.00
5988;BME280;3021;51.000;6.980;2023-08-06T08:58:39;68327.44;;;18.17;100.00
5988;BME280;3021;51.000;6.980;2023-08-06T09:01:06;68338.91;;;18.24;100.00
5988;BME280;3021;51.000;6.980;2023-08-06T09:03:32;68343.72;;;18.31;100.00
5988;BME280;3021;51.000;6.980;2023-08-06T09:05:59;68366.84;;;18.49;100.00
5988;BME280;3021;51.000;6.980;2023-08-06T09:08:27;68405.22;;;18.83;100.00
5988;BME280;3021;51.000;6.980;2023-08-06T09:10:54;68432.44;;;19.05;100.00
5988;BME280;3021;51.000;6.980;2023-08-06T09:13:21;68415.72;;;18.92;100.00
5988;BME280;3021;51.000;6.980;2023-08-06T09:15:48;68394.16;;;18.73;100.00
5988;BME280;3021;51.000;6.980;2023-08-06T09:18:24;68367.56;;;18.52;100.00
5988;BME280;3021;51.000;6.980;2023-08-06T09:20:50;68364.50;;;18.47;100.00
5988;BME280;3021;51.000;6.980;2023-08-06T09:23:15;68338.34;;;18.24;100.00
5988;BME280;3021;51.000;6.980;2023-08-06T09:25:41;68328.47;;;18.15;100.00
5988;BME280;3021;51.000;6.980;2023-08-06T09:28:06;68319.16;;;18.07;100.00
5988;BME280;3021;51.000;6.980;2023-08-06T09:30:34;68322.78;;;18.12;100.00
5988;BME280;3021;51.000;6.980;2023-08-06T09:32:59;68340.22;;;18.28;100.00
5988;BME280;3021;51.000;6.980;2023-08-06T09:35:27;68349.25;;;18.31;100.00
5988;BME280;3021;51.000;6.980;2023-08-06T09:37:53;68372.66;;;18.54;100.00
5988;BME280;3021;51.000;6.980;2023-08-06T09:40:31;68421.66;;;19.00;100.00
5988;BME280;3021;51.000;6.980;2023-08-06T09:42:57;68429.22;;;19.07;100.00
5988;BME280;3021;51.000;6.980;2023-08-06T09:45:23;68461.81;;;19.36;100.00
5988;BME280;3021;51.000;6.980;2023-08-06T09:47:56;68468.06;;;19.39;100.00
5988;BME280;3021;51.000;6.980;2023-08-06T09:50:23;68451.91;;;19.27;100.00
5988;BME280;3021;51.000;6.980;2023-08-06T09:52:53;68450.19;;;19.25;100.00
5988;BME280;3021;51.000;6.980;2023-08-06T09:55:18;68471.69;;;19.44;100.00
5988;BME280;3021;51.000;6.980;2023-08-06T09:57:44;68512.34;;;19.78;100.00
5988;BME280;3021;51.000;6.980;2023-08-06T10:00:11;68549.63;;;20.11;100.00
5988;BME280;3021;51.000;6.980;2023-08-06T10:02:37;68587.31;;;20.42;100.00
5988;BME280;3021;51.000;6.980;2023-08-06T10:05:05;68589.06;;;20.43;100.00
5988;BME280;3021;51.000;6.980;2023-08-06T10:07:31;68549.16;;;20.13;100.00
5988;BME280;3021;51.000;6.980;2023-08-06T10:09:58;68490.78;;;19.59;100.00
5988;BME280;3021;51.000;6.980;2023-08-06T10:12:24;68395.47;;;18.77;100.00
5988;BME280;3021;51.000;6.980;2023-08-06T10:14:53;68336.47;;;18.20;100.00
5988;BME280;3021;51.000;6.980;2023-08-06T10:17:22;68298.22;;;17.88;100.00
5988;BME280;3021;51.000;6.980;2023-08-06T10:19:49;68256.94;;;17.52;100.00
5988;BME280;3021;51.000;6.980;2023-08-06T10:22:16;68235.59;;;17.35;100.00
5988;BME280;3021;51.000;6.980;2023-08-06T10:24:52;68210.91;;;17.08;100.00
5988;BME280;3021;51.000;6.980;2023-08-06T10:27:27;68169.06;;;16.71;100.00
5988;BME280;3021;51.000;6.980;2023-08-06T10:29:53;68159.19;;;16.63;100.00
5988;BME280;3021;51.000;6.980;2023-08-06T10:32:18;68141.34;;;16.49;100.00
5988;BME280;3021;51.000;6.980;2023-08-06T10:37:18;68119.84;;;16.30;100.00
5988;BME280;3021;51.000;6.980;2023-08-06T10:39:51;68136.69;;;16.45;100.00
5988;BME280;3021;51.000;6.980;2023-08-06T10:42:27;68126.38;;;16.38;100.00
5988;BME280;3021;51.000;6.980;2023-08-06T10:47:39;68097.19;;;16.10;100.00
5988;BME280;3021;51.000;6.980;2023-08-06T10:50:07;68078.63;;;15.94;100.00
5988;BME280;3021;51.000;6.980;2023-08-06T10:52:34;68075.28;;;15.93;100.00
5988;BME280;3021;51.000;6.980;2023-08-06T10:54:59;68051.34;;;15.69;100.00
5988;BME280;3021;51.000;6.980;2023-08-06T10:57:25;68057.72;;;15.75;100.00
5988;BME280;3021;51.000;6.980;2023-08-06T10:59:50;68050.88;;;15.71;100.00
5988;BME280;3021;51.000;6.980;2023-08-06T11:02:16;68021.88;;;15.46;100.00
5988;BME280;3021;51.000;6.980;2023-08-06T11:04:41;68028.13;;;15.49;100.00
5988;BME280;3021;51.000;6.980;2023-08-06T11:07:07;68030.59;;;15.53;100.00
5988;BME280;3021;51.000;6.980;2023-08-06T11:09:32;68038.56;;;15.58;100.00
5988;BME280;3021;51.000;6.980;2023-08-06T11:11:57;68039.59;;;15.57;100.00
5988;BME280;3021;51.000;6.980;2023-08-06T11:14:23;68043.22;;;15.62;100.00
5988;BME280;3021;51.000;6.980;2023-08-06T11:16:48;68037.41;;;15.57;100.00
5988;BME280;3021;51.000;6.980;2023-08-06T11:19:15;68009.09;;;15.34;100.00
5988;BME280;3021;51.000;6.980;2023-08-06T11:21:41;68026.38;;;15.47;100.00
5988;BME280;3021;51.000;6.980;2023-08-06T11:24:10;68029.13;;;15.47;100.00
5988;BME280;3021;51.000;6.980;2023-08-06T11:26:36;67999.56;;;15.21;100.00
5988;BME280;3021;51.000;6.980;2023-08-06T11:29:02;68004.34;;;15.28;100.00
5988;BME280;3021;51.000;6.980;2023-08-06T11:31:28;68017.53;;;15.37;100.00
5988;BME280;3021;51.000;6.980;2023-08-06T11:33:54;68023.94;;;15.43;100.00
5988;BME280;3021;51.000;6.980;2023-08-06T11:36:30;68004.91;;;15.28;100.00
5988;BME280;3021;51.000;6.980;2023-08-06T11:38:56;68030.59;;;15.53;100.00
5988;BME280;3021;51.000;6.980;2023-08-06T11:41:22;68035.66;;;15.55;100.00
5988;BME280;3021;51.000;6.980;2023-08-06T11:43:47;68048.28;;;15.64;100.00
5988;BME280;3021;51.000;6.980;2023-08-06T11:46:13;68057.00;;;15.72;100.00
5988;BME280;3021;51.000;6.980;2023-08-06T11:49:10;68060.63;;;15.78;100.00
5988;BME280;3021;51.000;6.980;2023-08-06T11:51:36;68072.97;;;15.91;100.00
5988;BME280;3021;51.000;6.980;2023-08-06T11:54:01;68075.03;;;15.88;100.00
5988;BME280;3021;51.000;6.980;2023-08-06T11:56:28;68071.22;;;15.89;100.00
5988;BME280;3021;51.000;6.980;2023-08-06T11:58:54;68089.66;;;16.03;100.00
5988;BME280;3021;51.000;6.980;2023-08-06T12:01:20;68076.44;;;15.94;100.00
5988;BME280;3021;51.000;6.980;2023-08-06T12:03:45;68064.25;;;15.83;100.00
5988;BME280;3021;51.000;6.980;2023-08-06T12:06:11;68060.63;;;15.78;100.00
5988;BME280;3021;51.000;6.980;2023-08-06T12:08:36;68057.88;;;15.78;100.00
5988;BME280;3021;51.000;6.980;2023-08-06T12:11:03;68056.56;;;15.74;100.00
5988;BME280;3021;51.000;6.980;2023-08-06T12:13:28;68067.03;;;15.83;100.00
5988;BME280;3021;51.000;6.980;2023-08-06T12:15:54;68066.56;;;15.85;100.00
5988;BME280;3021;51.000;6.980;2023-08-06T12:18:20;68076.91;;;15.92;100.00
5988;BME280;3021;51.000;6.980;2023-08-06T12:20:45;68089.78;;;16.06;100.00
5988;BME280;3021;51.000;6.980;2023-08-06T12:23:10;68093.00;;;16.04;100.00
5988;BME280;3021;51.000;6.980;2023-08-06T12:25:40;68081.09;;;15.98;100.00
5988;BME280;3021;51.000;6.980;2023-08-06T12:28:05;68103.59;;;16.16;100.00
5988;BME280;3021;51.000;6.980;2023-08-06T12:30:32;68138.28;;;16.44;100.00
5988;BME280;3021;51.000;6.980;2023-08-06T12:32:57;68137.13;;;16.43;100.00
5988;BME280;3021;51.000;6.980;2023-08-06T12:35:22;68125.19;;;16.37;100.00
5988;BME280;3021;51.000;6.980;2023-08-06T12:37:48;68154.09;;;16.61;100.00
5988;BME280;3021;51.000;6.980;2023-08-06T12:40:13;68179.66;;;16.83;100.00
5988;BME280;3021;51.000;6.980;2023-08-06T12:42:39;68176.75;;;16.81;100.00
5988;BME280;3021;51.000;6.980;2023-08-06T12:45:04;68186.66;;;16.89;100.00
5988;BME280;3021;51.000;6.980;2023-08-06T12:47:30;68179.66;;;16.83;100.00
5988;BME280;3021;51.000;6.980;2023-08-06T12:49:55;68188.97;;;16.91;100.00
5988;BME280;3021;51.000;6.980;2023-08-06T12:52:20;68174.00;;;16.81;100.00
5988;BME280;3021;51.000;6.980;2023-08-06T12:54:46;68161.38;;;16.62;100.00
5988;BME280;3021;51.000;6.980;2023-08-06T12:57:11;68125.78;;;16.38;100.00
5988;BME280;3021;51.000;6.980;2023-08-06T12:59:36;68125.66;;;16.35;100.00
5988;BME280;3021;51.000;6.980;2023-08-06T13:02:02;68120.28;;;16.28;100.00
5988;BME280;3021;51.000;6.980;2023-08-06T13:04:27;68131.31;;;16.38;100.00
5988;BME280;3021;51.000;6.980;2023-08-06T13:06:53;68126.81;;;16.36;100.00
5988;BME280;3021;51.000;6.980;2023-08-06T13:09:19;68126.09;;;16.33;100.00